createdAt,value
2023-02-23T00:01:37.088Z,70.03
2023-02-23T00:04:03.787Z,77.67
2023-02-23T00:06:30.782Z,78.33
2023-02-23T00:08:58.351Z,69.50
2023-02-23T00:11:24.886Z,65.00
2023-02-23T00:13:52.490Z,65.07
2023-02-23T00:16:22.858Z,70.13
2023-02-23T00:18:51.001Z,69.43
2023-02-23T00:21:18.996Z,61.13
2023-02-23T00:23:59.196Z,67.13
2023-02-23T00:26:26.667Z,62.33
2023-02-23T00:28:53.624Z,64.87
2023-02-23T00:31:26.012Z,63.50
2023-02-23T00:33:56.471Z,70.97
2023-02-23T00:36:23.638Z,65.97
2023-02-23T00:38:53.353Z,60.23
2023-02-23T00:41:23.195Z,64.20
2023-02-23T00:43:50.004Z,62.77
2023-02-23T00:46:17.506Z,58.97
2023-02-23T00:48:47.898Z,64.13
2023-02-23T00:51:14.478Z,58.93
2023-02-23T00:53:41.468Z,64.40
2023-02-23T00:56:08.670Z,61.73
2023-02-23T00:58:35.203Z,60.73
2023-02-23T01:01:01.926Z,59.00
2023-02-23T01:03:28.829Z,55.40
2023-02-23T01:05:59.352Z,67.33
2023-02-23T01:08:25.883Z,65.43
2023-02-23T01:10:52.761Z,61.57
2023-02-23T01:13:20.632Z,67.03
2023-02-23T01:15:48.266Z,66.37
2023-02-23T01:18:15.742Z,64.40
2023-02-23T01:20:42.551Z,65.83
2023-02-23T01:23:09.196Z,67.27
2023-02-23T01:25:35.796Z,58.47
2023-02-23T01:28:02.401Z,64.03
2023-02-23T01:30:29.582Z,74.17
2023-02-23T01:32:56.167Z,68.83
2023-02-23T01:35:22.671Z,71.57
2023-02-23T01:37:49.658Z,67.80
2023-02-23T01:40:30.647Z,77.93
2023-02-23T01:42:58.671Z,74.70
2023-02-23T01:45:34.766Z,68.20
2023-02-23T01:48:03.245Z,67.50
2023-02-23T01:50:31.218Z,71.17
2023-02-23T01:52:59.453Z,71.63
2023-02-23T01:55:26.150Z,67.30
2023-02-23T01:57:58.267Z,65.53
2023-02-23T02:00:26.232Z,58.40
2023-02-23T02:02:52.907Z,51.50
2023-02-23T02:05:19.693Z,61.80
2023-02-23T02:07:46.862Z,55.57
2023-02-23T02:10:13.393Z,56.97
2023-02-23T02:12:44.334Z,55.83
2023-02-23T02:15:20.025Z,59.13
2023-02-23T02:17:58.848Z,57.53
2023-02-23T02:20:38.451Z,50.73
2023-02-23T02:23:17.190Z,50.97
2023-02-23T02:25:46.314Z,50.23
2023-02-23T02:28:12.844Z,50.43
2023-02-23T02:30:58.233Z,45.40
2023-02-23T02:33:34.584Z,47.03
2023-02-23T02:36:19.467Z,48.73
2023-02-23T02:39:08.288Z,46.73
2023-02-23T02:41:37.323Z,42.20
2023-02-23T02:44:10.811Z,46.10
2023-02-23T02:46:38.276Z,44.93
2023-02-23T02:49:06.497Z,39.83
2023-02-23T02:51:37.127Z,35.30
2023-02-23T02:54:07.085Z,38.07
2023-02-23T02:56:40.769Z,39.97
2023-02-23T02:59:26.552Z,36.40
2023-02-23T03:02:12.069Z,36.83
2023-02-23T03:04:57.529Z,40.30
2023-02-23T03:07:45.176Z,35.40
2023-02-23T03:10:30.221Z,39.67
2023-02-23T03:13:15.635Z,39.20
2023-02-23T03:16:13.385Z,36.50
2023-02-23T03:19:01.463Z,39.43
2023-02-23T03:21:54.381Z,38.07
2023-02-23T03:24:39.552Z,36.47
2023-02-23T03:27:27.186Z,33.70
2023-02-23T03:30:14.009Z,34.50
2023-02-23T03:33:04.916Z,36.73
2023-02-23T03:35:52.650Z,32.17
2023-02-23T03:38:43.800Z,34.03
2023-02-23T03:41:29.388Z,32.00
2023-02-23T03:44:16.847Z,33.53
2023-02-23T03:47:01.972Z,31.87
2023-02-23T03:49:47.786Z,33.10
2023-02-23T03:52:34.028Z,33.47
2023-02-23T03:55:19.876Z,30.10
2023-02-23T03:58:05.840Z,29.40
2023-02-23T04:00:52.029Z,30.97
2023-02-23T04:03:37.454Z,24.57
2023-02-23T04:06:23.424Z,25.50
2023-02-23T04:09:08.950Z,26.87
2023-02-23T04:12:10.670Z,22.63
2023-02-23T04:14:42.170Z,26.33
2023-02-23T04:17:08.690Z,28.17
2023-02-23T04:19:36.190Z,29.57
2023-02-23T04:22:02.735Z,22.63
2023-02-23T04:24:29.238Z,26.27
2023-02-23T04:26:55.832Z,25.03
2023-02-23T04:29:22.469Z,28.77
2023-02-23T04:31:50.478Z,24.90
2023-02-23T04:34:17.050Z,21.53
2023-02-23T04:36:43.683Z,23.17
2023-02-23T04:39:10.218Z,29.67
2023-02-23T04:41:36.863Z,24.87
2023-02-23T04:44:05.471Z,23.53
2023-02-23T04:46:32.450Z,20.80
2023-02-23T04:48:59.288Z,24.80
2023-02-23T04:51:33.053Z,25.43
2023-02-23T04:53:59.847Z,21.93
2023-02-23T04:56:26.345Z,24.80
2023-02-23T04:58:53.547Z,24.20
2023-02-23T05:01:22.498Z,23.93
2023-02-23T05:03:49.503Z,23.40
2023-02-23T05:06:16.531Z,21.43
2023-02-23T05:08:43.088Z,26.90
2023-02-23T05:11:09.956Z,25.63
2023-02-23T05:13:36.504Z,23.20
2023-02-23T05:16:03.155Z,22.97
2023-02-23T05:18:31.684Z,22.73
2023-02-23T05:21:01.768Z,23.90
2023-02-23T05:23:28.316Z,27.17
2023-02-23T05:25:54.928Z,28.00
2023-02-23T05:28:22.208Z,29.97
2023-02-23T05:30:48.862Z,27.80
2023-02-23T05:33:18.192Z,28.27
2023-02-23T05:35:44.862Z,27.60
2023-02-23T05:38:11.391Z,26.53
2023-02-23T05:40:37.978Z,26.20
2023-02-23T05:43:04.504Z,28.87
2023-02-23T05:45:31.049Z,31.50
2023-02-23T05:47:57.787Z,28.93
2023-02-23T05:50:24.322Z,25.93
2023-02-23T05:52:50.920Z,33.07
2023-02-23T05:55:17.514Z,32.03
2023-02-23T05:57:45.627Z,27.00
2023-02-23T06:00:13.705Z,30.10
2023-02-23T06:02:41.837Z,30.40
2023-02-23T06:05:09.236Z,32.07
2023-02-23T06:07:35.741Z,29.03
2023-02-23T06:10:02.242Z,32.60
2023-02-23T06:12:28.790Z,27.33
2023-02-23T06:14:55.379Z,29.07
2023-02-23T06:17:22.004Z,30.20
2023-02-23T06:19:48.766Z,26.47
2023-02-23T06:22:17.643Z,32.73
2023-02-23T06:24:44.391Z,30.83
2023-02-23T06:27:10.964Z,29.47
2023-02-23T06:29:38.380Z,30.73
2023-02-23T06:32:05.218Z,31.17
2023-02-23T06:34:32.728Z,30.03
2023-02-23T06:36:59.262Z,29.13
2023-02-23T06:39:25.803Z,30.70
2023-02-23T06:41:52.441Z,31.27
2023-02-23T06:44:18.974Z,30.83
2023-02-23T06:46:45.556Z,37.10
2023-02-23T06:49:12.157Z,36.10
2023-02-23T06:51:38.681Z,30.23
2023-02-23T06:54:05.188Z,29.67
2023-02-23T06:56:31.722Z,36.23
2023-02-23T06:58:58.218Z,29.30
2023-02-23T07:01:25.417Z,29.50
2023-02-23T07:03:52.024Z,33.00
2023-02-23T07:06:18.567Z,29.33
2023-02-23T07:08:45.179Z,29.40
2023-02-23T07:11:13.377Z,29.53
2023-02-23T07:13:40.329Z,32.70
2023-02-23T07:16:07.196Z,33.17
2023-02-23T07:18:33.801Z,31.87
2023-02-23T07:21:00.280Z,32.53
2023-02-23T07:23:27.420Z,31.30
2023-02-23T07:25:56.685Z,29.43
2023-02-23T07:28:23.219Z,31.43
2023-02-23T07:30:52.812Z,30.87
2023-02-23T07:33:19.322Z,31.40
2023-02-23T07:35:45.851Z,36.07
2023-02-23T07:38:13.590Z,28.00
2023-02-23T07:40:42.357Z,31.80
2023-02-23T07:43:09.991Z,34.53
2023-02-23T07:45:36.581Z,33.20
2023-02-23T07:48:03.501Z,31.43
2023-02-23T07:50:30.039Z,35.83
2023-02-23T07:52:56.621Z,35.37
2023-02-23T07:55:23.171Z,34.27
2023-02-23T07:57:49.758Z,34.47
2023-02-23T08:00:17.895Z,31.70
2023-02-23T08:02:44.647Z,33.93
2023-02-23T08:05:11.188Z,32.03
2023-02-23T08:07:37.752Z,31.30
2023-02-23T08:10:04.404Z,36.07
2023-02-23T08:12:33.404Z,41.63
2023-02-23T08:14:59.923Z,31.13
2023-02-23T08:17:26.553Z,36.03
2023-02-23T08:19:53.055Z,37.33
2023-02-23T08:22:21.691Z,36.63
2023-02-23T08:24:48.293Z,32.17
2023-02-23T08:27:14.911Z,33.63
2023-02-23T08:29:41.383Z,34.93
2023-02-23T08:32:07.987Z,28.57
2023-02-23T08:34:37.818Z,31.43
2023-02-23T08:37:04.390Z,33.27
2023-02-23T08:39:31.123Z,28.97
2023-02-23T08:41:57.660Z,34.07
2023-02-23T08:44:24.254Z,30.97
2023-02-23T08:46:50.995Z,30.53
2023-02-23T08:49:17.679Z,29.37
2023-02-23T08:51:47.103Z,27.17
2023-02-23T08:54:14.742Z,27.70
2023-02-23T08:56:41.571Z,31.17
2023-02-23T08:59:08.325Z,34.20
2023-02-23T09:01:35.103Z,27.03
2023-02-23T09:04:01.702Z,25.93
2023-02-23T09:06:28.333Z,32.33
2023-02-23T09:08:55.508Z,32.47
2023-02-23T09:11:22.863Z,28.13
2023-02-23T09:13:49.580Z,29.97
2023-02-23T09:16:16.370Z,28.87
2023-02-23T09:18:42.972Z,27.37
2023-02-23T09:21:19.151Z,29.27
2023-02-23T09:23:48.341Z,24.77
2023-02-23T09:26:15.367Z,25.47
2023-02-23T09:28:41.988Z,26.70
2023-02-23T09:31:09.147Z,31.97
2023-02-23T09:33:36.067Z,33.33
2023-02-23T09:36:07.493Z,33.30
2023-02-23T09:38:34.044Z,29.13
2023-02-23T09:41:00.605Z,31.67
2023-02-23T09:43:27.097Z,34.87
2023-02-23T09:45:56.001Z,29.13
2023-02-23T09:48:23.423Z,32.60
2023-02-23T09:50:56.880Z,30.87
2023-02-23T09:53:29.443Z,30.17
2023-02-23T09:55:56.320Z,32.90
2023-02-23T09:58:27.262Z,28.47
2023-02-23T10:00:56.799Z,29.83
2023-02-23T10:03:26.185Z,32.43
2023-02-23T10:05:54.259Z,25.77
2023-02-23T10:08:22.919Z,27.17
2023-02-23T10:10:51.120Z,27.47
2023-02-23T10:13:38.547Z,24.93
2023-02-23T10:16:23.841Z,26.47
2023-02-23T10:19:19.680Z,26.00
2023-02-23T10:21:48.158Z,29.23
2023-02-23T10:24:14.697Z,26.77
2023-02-23T10:26:47.384Z,28.27
2023-02-23T10:29:22.241Z,31.57
2023-02-23T10:31:49.853Z,23.70
2023-02-23T10:34:17.197Z,29.93
2023-02-23T10:36:53.059Z,28.80
2023-02-23T10:39:19.605Z,24.23
2023-02-23T10:41:46.227Z,24.47
2023-02-23T10:44:18.239Z,25.77
2023-02-23T10:46:44.888Z,27.27
2023-02-23T10:49:15.270Z,25.37
2023-02-23T10:51:41.808Z,28.00
2023-02-23T10:54:27.403Z,30.27
2023-02-23T10:56:54.664Z,24.13
2023-02-23T10:59:22.193Z,25.17
2023-02-23T11:02:01.438Z,24.50
2023-02-23T11:04:32.520Z,23.03
2023-02-23T11:07:18.609Z,21.00
2023-02-23T11:09:47.846Z,26.30
2023-02-23T11:12:33.460Z,24.07
2023-02-23T11:15:00.045Z,20.37
2023-02-23T11:17:33.728Z,23.10
2023-02-23T11:20:15.576Z,23.50
2023-02-23T11:22:42.111Z,19.90
2023-02-23T11:25:14.736Z,17.77
2023-02-23T11:27:42.294Z,18.30
2023-02-23T11:30:10.876Z,19.53
2023-02-23T11:32:43.365Z,18.90
2023-02-23T11:35:22.180Z,24.20
2023-02-23T11:37:49.115Z,14.63
2023-02-23T11:40:20.206Z,17.73
2023-02-23T11:42:53.641Z,17.90
2023-02-23T11:45:20.991Z,15.03
2023-02-23T11:47:49.688Z,16.80
2023-02-23T11:50:29.713Z,18.30
2023-02-23T11:53:02.334Z,16.00
2023-02-23T11:55:29.141Z,18.90
2023-02-23T11:58:08.422Z,16.43
2023-02-23T12:00:35.113Z,17.33
2023-02-23T12:03:01.859Z,18.27
2023-02-23T12:05:29.735Z,17.67
2023-02-23T12:08:10.951Z,14.50
2023-02-23T12:10:41.965Z,16.07
2023-02-23T12:13:08.542Z,15.53
2023-02-23T12:15:37.883Z,17.93
2023-02-23T12:18:10.764Z,16.73
2023-02-23T12:20:41.506Z,18.40
2023-02-23T12:23:10.284Z,16.30
2023-02-23T12:25:53.180Z,14.30
2023-02-23T12:28:22.916Z,15.50
2023-02-23T12:31:08.552Z,17.07
2023-02-23T12:33:37.418Z,17.97
2023-02-23T12:36:05.154Z,19.47
2023-02-23T12:38:40.693Z,16.73
2023-02-23T12:41:10.595Z,18.27
2023-02-23T12:43:49.486Z,20.93
2023-02-23T12:46:22.180Z,20.23
2023-02-23T12:49:01.965Z,20.57
2023-02-23T12:52:08.556Z,16.83
2023-02-23T12:54:35.496Z,16.57
2023-02-23T12:57:19.585Z,20.40
2023-02-23T12:59:52.272Z,19.53
2023-02-23T13:02:24.756Z,15.60
2023-02-23T13:05:02.532Z,13.67
2023-02-23T13:07:47.784Z,13.63
2023-02-23T13:10:20.448Z,17.03
2023-02-23T13:12:59.685Z,18.43
2023-02-23T13:15:35.440Z,17.87
2023-02-23T13:18:22.968Z,17.70
2023-02-23T13:21:01.929Z,17.40
2023-02-23T13:23:43.791Z,16.70
2023-02-23T13:26:20.314Z,14.33
2023-02-23T13:28:56.683Z,15.80
2023-02-23T13:31:25.077Z,20.77
2023-02-23T13:33:52.097Z,18.00
2023-02-23T13:36:19.814Z,16.63
2023-02-23T13:38:53.277Z,16.50
2023-02-23T13:41:39.569Z,16.20
2023-02-23T13:44:09.125Z,16.27
2023-02-23T13:46:37.405Z,13.23
2023-02-23T13:49:13.155Z,15.93
2023-02-23T13:51:41.527Z,16.90
2023-02-23T13:54:14.853Z,15.53
2023-02-23T13:56:44.519Z,14.67
2023-02-23T13:59:15.834Z,14.57
2023-02-23T14:01:46.006Z,16.47
2023-02-23T14:04:31.464Z,18.53
2023-02-23T14:07:01.166Z,17.17
2023-02-23T14:09:31.480Z,16.80
2023-02-23T14:12:07.298Z,18.70
2023-02-23T14:14:33.847Z,14.63
2023-02-23T14:17:15.675Z,18.67
2023-02-23T14:19:42.189Z,21.33
2023-02-23T14:22:22.053Z,17.53
2023-02-23T14:25:08.081Z,15.90
2023-02-23T14:27:41.845Z,15.37
2023-02-23T14:30:08.679Z,16.70
2023-02-23T14:32:39.074Z,18.30
2023-02-23T14:35:05.812Z,15.53
2023-02-23T14:37:34.616Z,19.13
2023-02-23T14:40:11.605Z,13.73
2023-02-23T14:42:38.334Z,15.90
2023-02-23T14:45:16.566Z,15.97
2023-02-23T14:47:45.058Z,19.40
2023-02-23T14:50:16.178Z,13.20
2023-02-23T14:52:42.803Z,17.17
2023-02-23T14:55:12.310Z,19.23
2023-02-23T14:57:39.967Z,23.10
2023-02-23T15:00:26.893Z,23.87
2023-02-23T15:02:57.729Z,21.57
2023-02-23T15:05:25.705Z,21.33
2023-02-23T15:07:52.227Z,18.40
2023-02-23T15:10:20.552Z,22.87
2023-02-23T15:12:47.151Z,22.13
2023-02-23T15:15:17.587Z,24.10
2023-02-23T15:17:45.129Z,22.73
2023-02-23T15:20:16.963Z,21.70
2023-02-23T15:22:43.843Z,25.60
2023-02-23T15:25:18.038Z,24.27
2023-02-23T15:27:45.433Z,26.00
2023-02-23T15:30:18.298Z,22.07
2023-02-23T15:32:44.954Z,23.37
2023-02-23T15:35:12.022Z,23.00
2023-02-23T15:40:15.792Z,23.83
2023-02-23T15:42:45.748Z,20.00
2023-02-23T15:45:35.742Z,22.00
2023-02-23T15:48:06.738Z,29.30
2023-02-23T15:50:40.809Z,30.20
2023-02-23T15:53:13.808Z,35.60
2023-02-23T15:55:41.958Z,32.97
2023-02-23T15:58:31.835Z,36.20
2023-02-23T16:01:00.030Z,37.90
2023-02-23T16:03:30.757Z,38.13
2023-02-23T16:06:01.145Z,33.33
2023-02-23T16:08:27.766Z,30.37
2023-02-23T16:10:57.581Z,36.03
2023-02-23T16:13:24.104Z,37.77
2023-02-23T16:15:50.748Z,33.27
2023-02-23T16:18:20.688Z,27.13
2023-02-23T16:20:56.142Z,29.23
2023-02-23T16:23:33.997Z,29.47
2023-02-23T16:26:12.453Z,29.93
2023-02-23T16:28:42.908Z,35.10
2023-02-23T16:31:13.922Z,41.97
2023-02-23T16:33:44.500Z,39.67
2023-02-23T16:36:11.030Z,36.40
2023-02-23T16:38:38.476Z,38.77
2023-02-23T16:41:05.588Z,36.57
2023-02-23T16:43:33.001Z,40.37
2023-02-23T16:45:59.882Z,40.23
2023-02-23T16:48:27.220Z,36.83
2023-02-23T16:50:54.868Z,44.80
2023-02-23T16:53:23.358Z,42.63
2023-02-23T16:55:52.130Z,42.37
2023-02-23T16:58:19.974Z,42.47
2023-02-23T17:00:46.602Z,41.07
2023-02-23T17:03:16.850Z,44.00
2023-02-23T17:05:43.590Z,37.37
2023-02-23T17:08:10.950Z,33.13
2023-02-23T17:10:37.842Z,35.13
2023-02-23T17:13:05.249Z,33.27
2023-02-23T17:15:33.541Z,40.93
2023-02-23T17:18:00.129Z,36.07
2023-02-23T17:20:27.268Z,38.00
2023-02-23T17:22:54.549Z,45.33
2023-02-23T17:25:26.624Z,43.57
2023-02-23T17:27:56.800Z,44.93
2023-02-23T17:30:23.406Z,54.93
2023-02-23T17:32:51.069Z,48.37
2023-02-23T17:35:17.795Z,49.60
2023-02-23T17:37:44.830Z,55.00
2023-02-23T17:40:14.082Z,43.20
2023-02-23T17:42:40.702Z,47.13
2023-02-23T17:45:07.382Z,45.20
2023-02-23T17:47:34.273Z,49.03
2023-02-23T17:50:00.893Z,45.33
2023-02-23T17:52:27.740Z,50.13
2023-02-23T17:54:54.847Z,45.30
2023-02-23T17:57:24.630Z,47.70
2023-02-23T17:59:51.580Z,46.17
2023-02-23T18:02:20.641Z,41.67
2023-02-23T18:04:47.783Z,49.57
2023-02-23T18:07:14.322Z,52.10
2023-02-23T18:09:40.930Z,56.53
2023-02-23T18:12:07.528Z,54.33
2023-02-23T18:14:34.101Z,58.07
2023-02-23T18:17:00.984Z,56.37
2023-02-23T18:19:28.138Z,60.10
2023-02-23T18:21:56.228Z,55.97
2023-02-23T18:24:27.745Z,54.73
2023-02-23T18:27:00.694Z,52.53
2023-02-23T18:29:28.863Z,52.00
2023-02-23T18:31:58.873Z,52.70
2023-02-23T18:34:25.962Z,51.07
2023-02-23T18:36:52.520Z,48.53
2023-02-23T18:39:19.086Z,47.50
2023-02-23T18:41:45.660Z,55.57
2023-02-23T18:44:14.737Z,55.43
2023-02-23T18:46:44.756Z,53.33
2023-02-23T18:49:15.289Z,54.17
2023-02-23T18:51:43.378Z,62.73
2023-02-23T18:54:11.888Z,57.10
2023-02-23T18:56:38.736Z,57.23
2023-02-23T18:59:05.298Z,60.63
2023-02-23T19:01:33.500Z,55.73
2023-02-23T19:04:01.452Z,54.80
2023-02-23T19:06:28.257Z,50.63
2023-02-23T19:08:56.464Z,55.77
2023-02-23T19:11:24.477Z,49.73
2023-02-23T19:14:00.651Z,55.30
2023-02-23T19:16:27.450Z,54.57
2023-02-23T19:18:54.102Z,56.43
2023-02-23T19:21:23.567Z,61.27
2023-02-23T19:23:53.921Z,58.87
2023-02-23T19:26:21.501Z,63.17
2023-02-23T19:28:48.342Z,64.53
2023-02-23T19:31:16.931Z,70.70
2023-02-23T19:33:43.588Z,66.30
2023-02-23T19:36:11.313Z,66.23
2023-02-23T19:38:39.247Z,69.80
2023-02-23T19:41:09.422Z,67.63
2023-02-23T19:43:35.955Z,61.33
2023-02-23T19:46:06.049Z,65.13
2023-02-23T19:48:32.610Z,60.13
2023-02-23T19:50:59.602Z,57.70
2023-02-23T19:53:28.058Z,55.33
2023-02-23T19:56:01.210Z,59.70
2023-02-23T19:58:27.809Z,62.77
2023-02-23T20:00:57.451Z,64.20
2023-02-23T20:03:28.633Z,65.10
2023-02-23T20:05:55.791Z,63.03
2023-02-23T20:08:25.853Z,60.43
2023-02-23T20:10:52.543Z,64.43
2023-02-23T20:13:19.333Z,68.70
2023-02-23T20:15:46.557Z,66.10
2023-02-23T20:18:16.369Z,69.50
2023-02-23T20:20:43.251Z,73.53
2023-02-23T20:23:09.870Z,66.80
2023-02-23T20:25:36.530Z,64.10
2023-02-23T20:28:03.770Z,65.03
2023-02-23T20:30:30.385Z,58.13
2023-02-23T20:32:57.426Z,61.33
2023-02-23T20:35:26.317Z,65.03
2023-02-23T20:37:53.601Z,64.80
2023-02-23T20:40:22.734Z,67.27
2023-02-23T20:42:49.885Z,59.47
2023-02-23T20:45:17.456Z,67.57
2023-02-23T20:47:45.853Z,61.90
2023-02-23T20:50:15.510Z,70.63
2023-02-23T20:52:42.165Z,67.47
2023-02-23T20:55:08.821Z,61.03
2023-02-23T20:57:35.536Z,62.63
2023-02-23T21:00:12.483Z,69.87
2023-02-23T21:02:39.178Z,56.17
2023-02-23T21:05:05.805Z,69.17
2023-02-23T21:07:32.348Z,58.27
2023-02-23T21:09:59.416Z,66.53
2023-02-23T21:12:25.947Z,73.87
2023-02-23T21:14:52.476Z,70.27
2023-02-23T21:17:19.117Z,71.80
2023-02-23T21:19:45.659Z,74.13
2023-02-23T21:22:13.671Z,69.03
2023-02-23T21:24:42.158Z,75.40
2023-02-23T21:27:14.690Z,71.13
2023-02-23T21:29:44.564Z,66.80
2023-02-23T21:32:14.067Z,66.10
2023-02-23T21:34:40.953Z,69.63
2023-02-23T21:37:07.560Z,74.30
2023-02-23T21:39:35.568Z,71.57
2023-02-23T21:42:02.204Z,83.10
2023-02-23T21:44:28.765Z,80.87
2023-02-23T21:46:55.547Z,74.87
2023-02-23T21:49:22.180Z,79.00
2023-02-23T21:51:48.889Z,69.97
2023-02-23T21:54:15.905Z,67.03
2023-02-23T21:56:42.444Z,66.60
2023-02-23T21:59:08.972Z,67.63
2023-02-23T22:01:36.620Z,59.73
2023-02-23T22:04:03.667Z,57.67
2023-02-23T22:06:38.994Z,60.43
2023-02-23T22:09:06.188Z,62.73
2023-02-23T22:11:36.277Z,68.43
2023-02-23T22:14:05.238Z,66.97
2023-02-23T22:16:32.796Z,63.30
2023-02-23T22:19:03.609Z,60.97
2023-02-23T22:21:33.967Z,60.83
2023-02-23T22:24:04.637Z,56.47
2023-02-23T22:26:36.105Z,60.27
2023-02-23T22:29:02.651Z,62.93
2023-02-23T22:31:30.881Z,61.93
2023-02-23T22:33:57.523Z,61.20
2023-02-23T22:36:24.077Z,60.93
2023-02-23T22:38:50.622Z,60.07
2023-02-23T22:41:17.283Z,61.13
2023-02-23T22:43:47.236Z,51.87
2023-02-23T22:46:14.263Z,54.57
2023-02-23T22:48:44.967Z,46.87
2023-02-23T22:51:12.291Z,52.23
2023-02-23T22:53:38.794Z,43.00
2023-02-23T22:56:05.621Z,42.90
2023-02-23T22:58:32.957Z,46.37
2023-02-23T23:01:03.905Z,47.13
2023-02-23T23:03:34.192Z,46.87
2023-02-23T23:06:02.819Z,43.07
2023-02-23T23:08:30.269Z,43.03
2023-02-23T23:11:00.677Z,48.63
2023-02-23T23:13:27.233Z,39.23
2023-02-23T23:15:57.731Z,35.97
2023-02-23T23:18:33.909Z,35.67
2023-02-23T23:21:03.558Z,36.73
2023-02-23T23:23:30.384Z,31.27
2023-02-23T23:25:56.908Z,30.67
2023-02-23T23:28:24.579Z,31.70
2023-02-23T23:30:52.296Z,32.03
2023-02-23T23:33:19.198Z,27.47
2023-02-23T23:35:45.666Z,27.07
2023-02-23T23:38:14.519Z,32.70
2023-02-23T23:40:47.045Z,27.97
2023-02-23T23:43:13.572Z,25.63
2023-02-23T23:45:40.621Z,24.17
2023-02-23T23:48:09.588Z,27.43
2023-02-23T23:50:36.319Z,24.03
2023-02-23T23:53:04.609Z,25.63
2023-02-23T23:55:31.697Z,24.63
2023-02-23T23:58:00.460Z,24.37
